La Crosse, Washington
Current Conditions -  °F | °C
As of 12:53 PM on Friday 21 Nov 2014 (Local Time) from KPUW Reporting Station
Clear Clear  
Wind Chill: 40°   Ceiling: Unl
Heat Index: 45°   Visibility: 10mi
Dew Point: 35°   Wind: 10mph
Humidity: 68%   Direction: 110°ESE
Pressure: 29.83"   Gusts: NA
Location:  46.81°N, 117.88°W
Report Text: KPUW 212053Z AUTO 11009KT 10SM CLR 07/02 A2983 RMK AO2 SLP112 T00720017 58024
Loading
Personal Weather Stations






























Interactive Weather Map New forecast layout! Learn more

10-Day Weather Forecast

Advertisements
Track Severe Weather on mobile